sensor_id;sensor_type;location;lat;lon;timestamp;pressure;altitude;pressure_sealevel;temperature
79172;BMP280;68597;53.238;-1.418;2023-04-24T00:00:16;99818.06;;;9.09
79172;BMP280;68597;53.238;-1.418;2023-04-24T00:02:43;99826.41;;;9.09
79172;BMP280;68597;53.238;-1.418;2023-04-24T00:05:09;99832.00;;;9.09
79172;BMP280;68597;53.238;-1.418;2023-04-24T00:07:37;99828.34;;;9.01
79172;BMP280;68597;53.238;-1.418;2023-04-24T00:10:03;99843.13;;;9.09
79172;BMP280;68597;53.238;-1.418;2023-04-24T00:12:29;99847.94;;;9.08
79172;BMP280;68597;53.238;-1.418;2023-04-24T00:14:55;99847.00;;;9.06
79172;BMP280;68597;53.238;-1.418;2023-04-24T00:17:21;99838.63;;;9.06
79172;BMP280;68597;53.238;-1.418;2023-04-24T00:19:47;99835.66;;;9.04
79172;BMP280;68597;53.238;-1.418;2023-04-24T00:22:13;99845.28;;;9.03
79172;BMP280;68597;53.238;-1.418;2023-04-24T00:24:40;99845.28;;;9.03
79172;BMP280;68597;53.238;-1.418;2023-04-24T00:27:06;99846.78;;;9.04
79172;BMP280;68597;53.238;-1.418;2023-04-24T00:29:32;99846.78;;;9.04
79172;BMP280;68597;53.238;-1.418;2023-04-24T00:31:58;99827.72;;;8.94
79172;BMP280;68597;53.238;-1.418;2023-04-24T00:34:24;99844.97;;;9.06
79172;BMP280;68597;53.238;-1.418;2023-04-24T00:36:49;99850.00;;;9.08
79172;BMP280;68597;53.238;-1.418;2023-04-24T00:39:17;99856.84;;;9.07
79172;BMP280;68597;53.238;-1.418;2023-04-24T00:41:45;99849.34;;;9.02
79172;BMP280;68597;53.238;-1.418;2023-04-24T00:44:11;99851.91;;;8.99
79172;BMP280;68597;53.238;-1.418;2023-04-24T00:46:37;99861.38;;;8.96
79172;BMP280;68597;53.238;-1.418;2023-04-24T00:49:04;99870.34;;;8.89
79172;BMP280;68597;53.238;-1.418;2023-04-24T00:51:30;99868.19;;;8.82
79172;BMP280;68597;53.238;-1.418;2023-04-24T00:53:56;99871.41;;;8.73
79172;BMP280;68597;53.238;-1.418;2023-04-24T00:56:22;99858.13;;;8.66
79172;BMP280;68597;53.238;-1.418;2023-04-24T00:58:50;99864.53;;;8.61
79172;BMP280;68597;53.238;-1.418;2023-04-24T01:01:17;99861.31;;;8.57
79172;BMP280;68597;53.238;-1.418;2023-04-24T01:03:43;99850.38;;;8.46
79172;BMP280;68597;53.238;-1.418;2023-04-24T01:06:09;99860.47;;;8.49
79172;BMP280;68597;53.238;-1.418;2023-04-24T01:08:35;99862.06;;;8.44
79172;BMP280;68597;53.238;-1.418;2023-04-24T01:11:03;99863.63;;;8.40
79172;BMP280;68597;53.238;-1.418;2023-04-24T01:13:30;99862.97;;;8.34
79172;BMP280;68597;53.238;-1.418;2023-04-24T01:15:59;99860.84;;;8.27
79172;BMP280;68597;53.238;-1.418;2023-04-24T01:18:26;99875.53;;;8.22
79172;BMP280;68597;53.238;-1.418;2023-04-24T01:20:54;99871.03;;;8.19
79172;BMP280;68597;53.238;-1.418;2023-04-24T01:23:25;99863.78;;;8.16
79172;BMP280;68597;53.238;-1.418;2023-04-24T01:25:51;99866.34;;;8.14
79172;BMP280;68597;53.238;-1.418;2023-04-24T01:28:18;99864.84;;;8.13
79172;BMP280;68597;53.238;-1.418;2023-04-24T01:30:44;99871.66;;;8.12
79172;BMP280;68597;53.238;-1.418;2023-04-24T01:33:10;99870.16;;;8.11
79172;BMP280;68597;53.238;-1.418;2023-04-24T01:35:37;99885.34;;;8.10
79172;BMP280;68597;53.238;-1.418;2023-04-24T01:38:03;99885.66;;;8.06
79172;BMP280;68597;53.238;-1.418;2023-04-24T01:40:30;99901.84;;;8.08
79172;BMP280;68597;53.238;-1.418;2023-04-24T01:42:57;99905.34;;;8.08
79172;BMP280;68597;53.238;-1.418;2023-04-24T01:45:23;99896.03;;;8.06
79172;BMP280;68597;53.238;-1.418;2023-04-24T01:47:49;99902.66;;;8.03
79172;BMP280;68597;53.238;-1.418;2023-04-24T01:50:16;99905.19;;;8.00
79172;BMP280;68597;53.238;-1.418;2023-04-24T01:52:42;99897.72;;;7.95
79172;BMP280;68597;53.238;-1.418;2023-04-24T01:55:09;99900.75;;;7.92
79172;BMP280;68597;53.238;-1.418;2023-04-24T01:57:38;99901.06;;;7.88
79172;BMP280;68597;53.238;-1.418;2023-04-24T02:00:05;99900.66;;;7.84
79172;BMP280;68597;53.238;-1.418;2023-04-24T02:02:40;99900.16;;;7.80
79172;BMP280;68597;53.238;-1.418;2023-04-24T02:05:07;99905.81;;;7.75
79172;BMP280;68597;53.238;-1.418;2023-04-24T02:07:35;99914.22;;;7.69
79172;BMP280;68597;53.238;-1.418;2023-04-24T02:10:01;99909.25;;;7.62
79172;BMP280;68597;53.238;-1.418;2023-04-24T02:12:27;99919.84;;;7.64
79172;BMP280;68597;53.238;-1.418;2023-04-24T02:14:55;99909.84;;;7.55
79172;BMP280;68597;53.238;-1.418;2023-04-24T02:17:21;99920.38;;;7.62
79172;BMP280;68597;53.238;-1.418;2023-04-24T02:19:47;99925.94;;;7.62
79172;BMP280;68597;53.238;-1.418;2023-04-24T02:22:13;99899.81;;;7.52
79172;BMP280;68597;53.238;-1.418;2023-04-24T02:24:39;99909.25;;;7.62
79172;BMP280;68597;53.238;-1.418;2023-04-24T02:27:06;99909.72;;;7.66
79172;BMP280;68597;53.238;-1.418;2023-04-24T02:29:31;99909.25;;;7.62
79172;BMP280;68597;53.238;-1.418;2023-04-24T02:31:59;99903.25;;;7.58
79172;BMP280;68597;53.238;-1.418;2023-04-24T02:34:25;99919.31;;;7.65
79172;BMP280;68597;53.238;-1.418;2023-04-24T02:36:50;99920.06;;;7.66
79172;BMP280;68597;53.238;-1.418;2023-04-24T02:39:16;99915.72;;;7.70
79172;BMP280;68597;53.238;-1.418;2023-04-24T02:41:42;99926.84;;;7.70
79172;BMP280;68597;53.238;-1.418;2023-04-24T02:44:08;99925.13;;;7.67
79172;BMP280;68597;53.238;-1.418;2023-04-24T02:46:34;99926.91;;;7.65
79172;BMP280;68597;53.238;-1.418;2023-04-24T02:49:02;99939.00;;;7.67
79172;BMP280;68597;53.238;-1.418;2023-04-24T02:51:28;99954.63;;;7.70
79172;BMP280;68597;53.238;-1.418;2023-04-24T02:53:54;99941.50;;;7.71
79172;BMP280;68597;53.238;-1.418;2023-04-24T02:56:20;99938.47;;;7.69
79172;BMP280;68597;53.238;-1.418;2023-04-24T02:58:46;99952.09;;;7.72
79172;BMP280;68597;53.238;-1.418;2023-04-24T03:01:12;99944.25;;;7.71
79172;BMP280;68597;53.238;-1.418;2023-04-24T03:03:38;99946.97;;;7.76
79172;BMP280;68597;53.238;-1.418;2023-04-24T03:06:06;99951.25;;;7.77
79172;BMP280;68597;53.238;-1.418;2023-04-24T03:08:32;99948.47;;;7.77
79172;BMP280;68597;53.238;-1.418;2023-04-24T03:10:58;99947.72;;;7.77
79172;BMP280;68597;53.238;-1.418;2023-04-24T03:13:24;99946.97;;;7.76
79172;BMP280;68597;53.238;-1.418;2023-04-24T03:15:50;99940.97;;;7.72
79172;BMP280;68597;53.238;-1.418;2023-04-24T03:18:15;99939.47;;;7.71
79172;BMP280;68597;53.238;-1.418;2023-04-24T03:20:42;99952.66;;;7.65
79172;BMP280;68597;53.238;-1.418;2023-04-24T03:23:10;99947.44;;;7.62
79172;BMP280;68597;53.238;-1.418;2023-04-24T03:25:37;99953.75;;;7.57
79172;BMP280;68597;53.238;-1.418;2023-04-24T03:28:03;99956.63;;;7.51
79172;BMP280;68597;53.238;-1.418;2023-04-24T03:30:38;99958.44;;;7.48
79172;BMP280;68597;53.238;-1.418;2023-04-24T03:33:04;99969.28;;;7.46
79172;BMP280;68597;53.238;-1.418;2023-04-24T03:35:34;99974.84;;;7.46
79172;BMP280;68597;53.238;-1.418;2023-04-24T03:38:03;99970.06;;;7.47
79172;BMP280;68597;53.238;-1.418;2023-04-24T03:40:50;99963.50;;;7.44
79172;BMP280;68597;53.238;-1.418;2023-04-24T03:43:36;99969.75;;;7.50
79172;BMP280;68597;53.238;-1.418;2023-04-24T03:46:03;99968.53;;;7.46
79172;BMP280;68597;53.238;-1.418;2023-04-24T03:48:32;99980.13;;;7.50
79172;BMP280;68597;53.238;-1.418;2023-04-24T03:50:58;99978.84;;;7.51
79172;BMP280;68597;53.238;-1.418;2023-04-24T03:53:24;99961.97;;;7.49
79172;BMP280;68597;53.238;-1.418;2023-04-24T03:55:53;99970.72;;;7.53
79172;BMP280;68597;53.238;-1.418;2023-04-24T03:58:19;99977.28;;;7.56
79172;BMP280;68597;53.238;-1.418;2023-04-24T04:00:45;99981.03;;;7.58
79172;BMP280;68597;53.238;-1.418;2023-04-24T04:03:31;99982.78;;;7.61
79172;BMP280;68597;53.238;-1.418;2023-04-24T04:05:57;99984.28;;;7.62
79172;BMP280;68597;53.238;-1.418;2023-04-24T04:08:22;99977.44;;;7.63
79172;BMP280;68597;53.238;-1.418;2023-04-24T04:10:49;99980.22;;;7.63
79172;BMP280;68597;53.238;-1.418;2023-04-24T04:13:17;99981.50;;;7.62
79172;BMP280;68597;53.238;-1.418;2023-04-24T04:15:43;99977.22;;;7.61
79172;BMP280;68597;53.238;-1.418;2023-04-24T04:18:09;99990.63;;;7.57
79172;BMP280;68597;53.238;-1.418;2023-04-24T04:20:35;99986.88;;;7.55
79172;BMP280;68597;53.238;-1.418;2023-04-24T04:23:01;99991.25;;;7.50
79172;BMP280;68597;53.238;-1.418;2023-04-24T04:25:39;99995.56;;;7.45
79172;BMP280;68597;53.238;-1.418;2023-04-24T04:28:36;99992.56;;;7.43
79172;BMP280;68597;53.238;-1.418;2023-04-24T04:31:02;100008.00;;;7.39
79172;BMP280;68597;53.238;-1.418;2023-04-24T04:33:29;100004.09;;;7.29
79172;BMP280;68597;53.238;-1.418;2023-04-24T04:35:55;100012.63;;;7.31
79172;BMP280;68597;53.238;-1.418;2023-04-24T04:38:21;100006.31;;;7.30
79172;BMP280;68597;53.238;-1.418;2023-04-24T04:40:56;100015.94;;;7.29
79172;BMP280;68597;53.238;-1.418;2023-04-24T04:43:23;100016.66;;;7.30
79172;BMP280;68597;53.238;-1.418;2023-04-24T04:45:53;100014.44;;;7.28
79172;BMP280;68597;53.238;-1.418;2023-04-24T04:48:39;100016.66;;;7.30
79172;BMP280;68597;53.238;-1.418;2023-04-24T04:51:06;100011.69;;;7.23
79172;BMP280;68597;53.238;-1.418;2023-04-24T04:53:32;100027.78;;;7.30
79172;BMP280;68597;53.238;-1.418;2023-04-24T04:55:58;100031.53;;;7.32
79172;BMP280;68597;53.238;-1.418;2023-04-24T04:58:30;100025.53;;;7.28
79172;BMP280;68597;53.238;-1.418;2023-04-24T05:01:00;100040.56;;;7.38
79172;BMP280;68597;53.238;-1.418;2023-04-24T05:03:32;100037.50;;;7.42
79172;BMP280;68597;53.238;-1.418;2023-04-24T05:06:03;100042.03;;;7.45
79172;BMP280;68597;53.238;-1.418;2023-04-24T05:08:32;100038.22;;;7.48
79172;BMP280;68597;53.238;-1.418;2023-04-24T05:11:00;100054.06;;;7.53
79172;BMP280;68597;53.238;-1.418;2023-04-24T05:13:27;100057.31;;;7.57
79172;BMP280;68597;53.238;-1.418;2023-04-24T05:15:53;100054.28;;;7.61
79172;BMP280;68597;53.238;-1.418;2023-04-24T05:18:21;100056.75;;;7.64
79172;BMP280;68597;53.238;-1.418;2023-04-24T05:20:47;100052.94;;;7.67
79172;BMP280;68597;53.238;-1.418;2023-04-24T05:23:13;100049.69;;;7.63
79172;BMP280;68597;53.238;-1.418;2023-04-24T05:25:42;100063.25;;;7.72
79172;BMP280;68597;53.238;-1.418;2023-04-24T05:28:11;100049.56;;;7.74
79172;BMP280;68597;53.238;-1.418;2023-04-24T05:30:38;100038.56;;;7.63
79172;BMP280;68597;53.238;-1.418;2023-04-24T05:33:05;100062.66;;;7.79
79172;BMP280;68597;53.238;-1.418;2023-04-24T05:35:35;100064.91;;;7.81
79172;BMP280;68597;53.238;-1.418;2023-04-24T05:38:01;100034.75;;;7.66
79172;BMP280;68597;53.238;-1.418;2023-04-24T05:40:27;100068.84;;;7.91
79172;BMP280;68597;53.238;-1.418;2023-04-24T05:42:53;100069.81;;;7.93
79172;BMP280;68597;53.238;-1.418;2023-04-24T05:45:20;100066.00;;;7.96
79172;BMP280;68597;53.238;-1.418;2023-04-24T05:47:46;100053.50;;;7.84
79172;BMP280;68597;53.238;-1.418;2023-04-24T05:50:12;100079.53;;;8.06
79172;BMP280;68597;53.238;-1.418;2023-04-24T05:52:39;100077.00;;;8.08
79172;BMP280;68597;53.238;-1.418;2023-04-24T05:55:17;100072.63;;;8.12
79172;BMP280;68597;53.238;-1.418;2023-04-24T05:57:43;100084.66;;;8.20
79172;BMP280;68597;53.238;-1.418;2023-04-24T06:00:10;100082.84;;;8.23
79172;BMP280;68597;53.238;-1.418;2023-04-24T06:02:40;100075.34;;;8.18
79172;BMP280;68597;53.238;-1.418;2023-04-24T06:05:10;100065.72;;;8.19
79172;BMP280;68597;53.238;-1.418;2023-04-24T06:07:36;100084.72;;;8.39
79172;BMP280;68597;53.238;-1.418;2023-04-24T06:10:07;100092.66;;;8.48
79172;BMP280;68597;53.238;-1.418;2023-04-24T06:12:39;100084.53;;;8.50
79172;BMP280;68597;53.238;-1.418;2023-04-24T06:15:10;100098.97;;;8.67
79172;BMP280;68597;53.238;-1.418;2023-04-24T06:17:51;100086.19;;;8.77
79172;BMP280;68597;53.238;-1.418;2023-04-24T06:20:18;100057.75;;;8.66
79172;BMP280;68597;53.238;-1.418;2023-04-24T06:22:44;100090.06;;;8.87
79172;BMP280;68597;53.238;-1.418;2023-04-24T06:25:11;100089.63;;;8.83
79172;BMP280;68597;53.238;-1.418;2023-04-24T06:27:37;100108.72;;;8.92
79172;BMP280;68597;53.238;-1.418;2023-04-24T06:30:04;100108.94;;;8.94
79172;BMP280;68597;53.238;-1.418;2023-04-24T06:32:32;100097.59;;;8.92
79172;BMP280;68597;53.238;-1.418;2023-04-24T06:34:59;100103.38;;;8.94
79172;BMP280;68597;53.238;-1.418;2023-04-24T06:37:25;100093.97;;;8.98
79172;BMP280;68597;53.238;-1.418;2023-04-24T06:39:51;100099.22;;;9.01
79172;BMP280;68597;53.238;-1.418;2023-04-24T06:42:18;100096.00;;;8.97
79172;BMP280;68597;53.238;-1.418;2023-04-24T06:44:44;100110.28;;;9.07
79172;BMP280;68597;53.238;-1.418;2023-04-24T06:47:10;100113.72;;;9.13
79172;BMP280;68597;53.238;-1.418;2023-04-24T06:49:36;100116.00;;;9.27
79172;BMP280;68597;53.238;-1.418;2023-04-24T06:52:03;100121.63;;;9.40
79172;BMP280;68597;53.238;-1.418;2023-04-24T06:54:29;100125.81;;;9.47
79172;BMP280;68597;53.238;-1.418;2023-04-24T06:56:55;100129.03;;;9.64
79172;BMP280;68597;53.238;-1.418;2023-04-24T06:59:22;100132.63;;;9.91
79172;BMP280;68597;53.238;-1.418;2023-04-24T07:01:48;100121.91;;;10.21
79172;BMP280;68597;53.238;-1.418;2023-04-24T07:04:14;100139.09;;;10.59
79172;BMP280;68597;53.238;-1.418;2023-04-24T07:06:40;100137.91;;;10.88
79172;BMP280;68597;53.238;-1.418;2023-04-24T07:09:06;100140.06;;;11.16
79172;BMP280;68597;53.238;-1.418;2023-04-24T07:11:31;100132.56;;;11.32
79172;BMP280;68597;53.238;-1.418;2023-04-24T07:13:57;100145.63;;;11.37
79172;BMP280;68597;53.238;-1.418;2023-04-24T07:16:24;100151.66;;;11.41
79172;BMP280;68597;53.238;-1.418;2023-04-24T07:18:50;100160.66;;;11.47
79172;BMP280;68597;53.238;-1.418;2023-04-24T07:21:16;100154.16;;;11.52
79172;BMP280;68597;53.238;-1.418;2023-04-24T07:23:42;100145.47;;;11.63
79172;BMP280;68597;53.238;-1.418;2023-04-24T07:26:07;100156.94;;;11.80
79172;BMP280;68597;53.238;-1.418;2023-04-24T07:28:33;100128.28;;;11.87
79172;BMP280;68597;53.238;-1.418;2023-04-24T07:30:59;100163.53;;;12.19
79172;BMP280;68597;53.238;-1.418;2023-04-24T07:33:27;100156.31;;;12.31
79172;BMP280;68597;53.238;-1.418;2023-04-24T07:35:53;100155.00;;;12.32
79172;BMP280;68597;53.238;-1.418;2023-04-24T07:38:19;100159.88;;;12.39
79172;BMP280;68597;53.238;-1.418;2023-04-24T07:40:45;100134.22;;;12.20
79172;BMP280;68597;53.238;-1.418;2023-04-24T07:43:11;100158.53;;;12.25
79172;BMP280;68597;53.238;-1.418;2023-04-24T07:45:37;100154.75;;;12.15
79172;BMP280;68597;53.238;-1.418;2023-04-24T07:48:03;100163.84;;;12.08
79172;BMP280;68597;53.238;-1.418;2023-04-24T07:50:30;100137.59;;;11.82
79172;BMP280;68597;53.238;-1.418;2023-04-24T07:52:56;100158.50;;;11.89
79172;BMP280;68597;53.238;-1.418;2023-04-24T07:55:22;100161.78;;;11.80
79172;BMP280;68597;53.238;-1.418;2023-04-24T07:57:48;100158.34;;;11.66
79172;BMP280;68597;53.238;-1.418;2023-04-24T08:00:14;100171.47;;;11.71
79172;BMP280;68597;53.238;-1.418;2023-04-24T08:02:40;100147.88;;;11.59
79172;BMP280;68597;53.238;-1.418;2023-04-24T08:05:08;100162.84;;;11.69
79172;BMP280;68597;53.238;-1.418;2023-04-24T08:07:35;100163.78;;;11.64
79172;BMP280;68597;53.238;-1.418;2023-04-24T08:10:01;100154.50;;;11.48
79172;BMP280;68597;53.238;-1.418;2023-04-24T08:12:28;100149.38;;;11.39
79172;BMP280;68597;53.238;-1.418;2023-04-24T08:14:54;100165.88;;;11.71
79172;BMP280;68597;53.238;-1.418;2023-04-24T08:17:19;100165.66;;;11.97
79172;BMP280;68597;53.238;-1.418;2023-04-24T08:19:45;100171.06;;;12.31
79172;BMP280;68597;53.238;-1.418;2023-04-24T08:22:11;100162.56;;;12.60
79172;BMP280;68597;53.238;-1.418;2023-04-24T08:24:38;100170.16;;;13.02
79172;BMP280;68597;53.238;-1.418;2023-04-24T08:27:04;100161.94;;;13.20
79172;BMP280;68597;53.238;-1.418;2023-04-24T08:29:30;100173.53;;;13.54
79172;BMP280;68597;53.238;-1.418;2023-04-24T08:31:56;100160.75;;;13.76
79172;BMP280;68597;53.238;-1.418;2023-04-24T08:34:21;100174.72;;;14.13
79172;BMP280;68597;53.238;-1.418;2023-04-24T08:36:48;100165.47;;;14.28
79172;BMP280;68597;53.238;-1.418;2023-04-24T08:39:14;100150.91;;;14.22
79172;BMP280;68597;53.238;-1.418;2023-04-24T08:41:41;100170.88;;;14.34
79172;BMP280;68597;53.238;-1.418;2023-04-24T08:44:07;100172.25;;;14.17
79172;BMP280;68597;53.238;-1.418;2023-04-24T08:46:34;100172.34;;;13.95
79172;BMP280;68597;53.238;-1.418;2023-04-24T08:49:01;100179.84;;;13.77
79172;BMP280;68597;53.238;-1.418;2023-04-24T08:51:27;100175.34;;;13.74
79172;BMP280;68597;53.238;-1.418;2023-04-24T08:53:54;100178.69;;;13.80
79172;BMP280;68597;53.238;-1.418;2023-04-24T08:56:21;100181.38;;;13.78
79172;BMP280;68597;53.238;-1.418;2023-04-24T08:58:50;100183.22;;;13.83
79172;BMP280;68597;53.238;-1.418;2023-04-24T09:01:16;100189.94;;;13.80
79172;BMP280;68597;53.238;-1.418;2023-04-24T09:03:42;100168.69;;;13.54
79172;BMP280;68597;53.238;-1.418;2023-04-24T09:06:09;100191.47;;;13.51
79172;BMP280;68597;53.238;-1.418;2023-04-24T09:08:36;100176.72;;;13.28
79172;BMP280;68597;53.238;-1.418;2023-04-24T09:11:02;100189.81;;;13.48
79172;BMP280;68597;53.238;-1.418;2023-04-24T09:13:28;100186.97;;;13.63
79172;BMP280;68597;53.238;-1.418;2023-04-24T09:15:55;100186.97;;;13.71
79172;BMP280;68597;53.238;-1.418;2023-04-24T09:18:21;100195.78;;;13.67
79172;BMP280;68597;53.238;-1.418;2023-04-24T09:20:57;100187.00;;;13.55
79172;BMP280;68597;53.238;-1.418;2023-04-24T09:23:26;100194.47;;;13.38
79172;BMP280;68597;53.238;-1.418;2023-04-24T09:25:55;100195.59;;;13.20
79172;BMP280;68597;53.238;-1.418;2023-04-24T09:28:26;100200.06;;;13.07
79172;BMP280;68597;53.238;-1.418;2023-04-24T09:31:04;100203.44;;;13.14
79172;BMP280;68597;53.238;-1.418;2023-04-24T09:33:30;100206.41;;;13.16
79172;BMP280;68597;53.238;-1.418;2023-04-24T09:35:56;100203.81;;;13.18
79172;BMP280;68597;53.238;-1.418;2023-04-24T09:38:31;100204.94;;;13.22
79172;BMP280;68597;53.238;-1.418;2023-04-24T09:40:59;100198.22;;;13.48
79172;BMP280;68597;53.238;-1.418;2023-04-24T09:43:26;100208.69;;;13.85
79172;BMP280;68597;53.238;-1.418;2023-04-24T09:45:55;100207.41;;;14.34
79172;BMP280;68597;53.238;-1.418;2023-04-24T09:48:31;100224.41;;;14.83
79172;BMP280;68597;53.238;-1.418;2023-04-24T09:50:57;100222.31;;;15.16
79172;BMP280;68597;53.238;-1.418;2023-04-24T09:53:24;100213.88;;;15.41
79172;BMP280;68597;53.238;-1.418;2023-04-24T09:55:50;100218.22;;;15.59
79172;BMP280;68597;53.238;-1.418;2023-04-24T09:58:15;100215.03;;;15.79
79172;BMP280;68597;53.238;-1.418;2023-04-24T10:00:41;100213.47;;;15.86
79172;BMP280;68597;53.238;-1.418;2023-04-24T10:03:07;100222.66;;;15.69
79172;BMP280;68597;53.238;-1.418;2023-04-24T10:05:36;100225.13;;;15.41
79172;BMP280;68597;53.238;-1.418;2023-04-24T10:08:04;100222.03;;;15.04
79172;BMP280;68597;53.238;-1.418;2023-04-24T10:10:31;100234.34;;;14.84
79172;BMP280;68597;53.238;-1.418;2023-04-24T10:12:59;100218.72;;;14.58
79172;BMP280;68597;53.238;-1.418;2023-04-24T10:15:26;100231.97;;;14.73
79172;BMP280;68597;53.238;-1.418;2023-04-24T10:17:52;100230.81;;;15.08
79172;BMP280;68597;53.238;-1.418;2023-04-24T10:20:20;100240.66;;;15.66
79172;BMP280;68597;53.238;-1.418;2023-04-24T10:22:50;100223.00;;;16.08
79172;BMP280;68597;53.238;-1.418;2023-04-24T10:25:17;100243.72;;;16.64
79172;BMP280;68597;53.238;-1.418;2023-04-24T10:27:44;100242.44;;;17.01
79172;BMP280;68597;53.238;-1.418;2023-04-24T10:30:12;100250.28;;;17.29
79172;BMP280;68597;53.238;-1.418;2023-04-24T10:32:38;100241.34;;;17.23
79172;BMP280;68597;53.238;-1.418;2023-04-24T10:35:04;100204.88;;;16.72
79172;BMP280;68597;53.238;-1.418;2023-04-24T10:37:35;100229.66;;;16.46
79172;BMP280;68597;53.238;-1.418;2023-04-24T10:40:04;100237.28;;;16.36
79172;BMP280;68597;53.238;-1.418;2023-04-24T10:42:30;100214.75;;;16.36
79172;BMP280;68597;53.238;-1.418;2023-04-24T10:44:56;100225.41;;;16.82
79172;BMP280;68597;53.238;-1.418;2023-04-24T10:47:21;100234.03;;;17.10
79172;BMP280;68597;53.238;-1.418;2023-04-24T10:49:50;100216.56;;;16.95
79172;BMP280;68597;53.238;-1.418;2023-04-24T10:52:16;100238.34;;;16.85
79172;BMP280;68597;53.238;-1.418;2023-04-24T10:54:44;100242.22;;;16.63
79172;BMP280;68597;53.238;-1.418;2023-04-24T10:57:27;100217.25;;;16.15
79172;BMP280;68597;53.238;-1.418;2023-04-24T11:00:12;100213.84;;;15.82
79172;BMP280;68597;53.238;-1.418;2023-04-24T11:02:39;100239.00;;;16.05
79172;BMP280;68597;53.238;-1.418;2023-04-24T11:05:06;100237.47;;;16.38
79172;BMP280;68597;53.238;-1.418;2023-04-24T11:10:44;100233.38;;;17.02
79172;BMP280;68597;53.238;-1.418;2023-04-24T11:13:09;100237.97;;;16.98
79172;BMP280;68597;53.238;-1.418;2023-04-24T11:15:35;100237.44;;;17.09
79172;BMP280;68597;53.238;-1.418;2023-04-24T11:18:01;100241.38;;;17.42
79172;BMP280;68597;53.238;-1.418;2023-04-24T11:20:27;100247.41;;;17.65
79172;BMP280;68597;53.238;-1.418;2023-04-24T11:22:54;100253.38;;;17.69
79172;BMP280;68597;53.238;-1.418;2023-04-24T11:25:21;100241.44;;;17.61
79172;BMP280;68597;53.238;-1.418;2023-04-24T11:27:49;100233.44;;;17.87
79172;BMP280;68597;53.238;-1.418;2023-04-24T11:30:17;100233.59;;;18.27
79172;BMP280;68597;53.238;-1.418;2023-04-24T11:32:50;100249.06;;;18.45
79172;BMP280;68597;53.238;-1.418;2023-04-24T11:35:18;100258.44;;;18.28
79172;BMP280;68597;53.238;-1.418;2023-04-24T11:37:46;100262.91;;;18.03
79172;BMP280;68597;53.238;-1.418;2023-04-24T11:40:14;100256.34;;;17.71
79172;BMP280;68597;53.238;-1.418;2023-04-24T11:42:41;100255.47;;;17.33
79172;BMP280;68597;53.238;-1.418;2023-04-24T11:45:10;100256.31;;;17.06
79172;BMP280;68597;53.238;-1.418;2023-04-24T11:47:37;100280.97;;;16.89
79172;BMP280;68597;53.238;-1.418;2023-04-24T11:50:08;100261.41;;;16.47
79172;BMP280;68597;53.238;-1.418;2023-04-24T11:52:38;100279.50;;;16.27
79172;BMP280;68597;53.238;-1.418;2023-04-24T11:55:05;100291.50;;;15.93
79172;BMP280;68597;53.238;-1.418;2023-04-24T11:57:32;100269.72;;;15.52
79172;BMP280;68597;53.238;-1.418;2023-04-24T11:59:57;100274.38;;;15.32
79172;BMP280;68597;53.238;-1.418;2023-04-24T12:02:26;100266.41;;;15.13
79172;BMP280;68597;53.238;-1.418;2023-04-24T12:04:53;100289.47;;;15.12
79172;BMP280;68597;53.238;-1.418;2023-04-24T12:07:19;100266.25;;;14.79
79172;BMP280;68597;53.238;-1.418;2023-04-24T12:09:46;100299.25;;;14.71
79172;BMP280;68597;53.238;-1.418;2023-04-24T12:12:13;100283.00;;;14.47
79172;BMP280;68597;53.238;-1.418;2023-04-24T12:14:55;100294.66;;;14.36
79172;BMP280;68597;53.238;-1.418;2023-04-24T12:17:27;100296.75;;;14.28
79172;BMP280;68597;53.238;-1.418;2023-04-24T12:19:57;100329.53;;;14.33
79172;BMP280;68597;53.238;-1.418;2023-04-24T12:22:23;100316.41;;;14.28
79172;BMP280;68597;53.238;-1.418;2023-04-24T12:24:58;100309.72;;;14.15
79172;BMP280;68597;53.238;-1.418;2023-04-24T12:27:24;100310.81;;;14.12
79172;BMP280;68597;53.238;-1.418;2023-04-24T12:29:52;100317.59;;;14.09
79172;BMP280;68597;53.238;-1.418;2023-04-24T12:32:18;100338.91;;;14.12
79172;BMP280;68597;53.238;-1.418;2023-04-24T12:34:45;100319.81;;;13.88
79172;BMP280;68597;53.238;-1.418;2023-04-24T12:37:11;100314.56;;;13.77
79172;BMP280;68597;53.238;-1.418;2023-04-24T12:39:37;100336.06;;;13.67
79172;BMP280;68597;53.238;-1.418;2023-04-24T12:42:03;100316.06;;;13.48
79172;BMP280;68597;53.238;-1.418;2023-04-24T12:44:29;100330.22;;;13.42
79172;BMP280;68597;53.238;-1.418;2023-04-24T12:46:55;100310.03;;;13.29
79172;BMP280;68597;53.238;-1.418;2023-04-24T12:49:21;100337.34;;;13.43
79172;BMP280;68597;53.238;-1.418;2023-04-24T12:51:48;100309.44;;;13.30
79172;BMP280;68597;53.238;-1.418;2023-04-24T12:54:14;100328.19;;;13.43
79172;BMP280;68597;53.238;-1.418;2023-04-24T12:56:40;100304.41;;;13.29
79172;BMP280;68597;53.238;-1.418;2023-04-24T12:59:06;100330.63;;;13.46
79172;BMP280;68597;53.238;-1.418;2023-04-24T13:01:32;100336.25;;;13.54
79172;BMP280;68597;53.238;-1.418;2023-04-24T13:03:58;100331.00;;;13.58
79172;BMP280;68597;53.238;-1.418;2023-04-24T13:06:24;100314.56;;;13.54
79172;BMP280;68597;53.238;-1.418;2023-04-24T13:08:51;100338.53;;;13.78
79172;BMP280;68597;53.238;-1.418;2023-04-24T13:11:17;100313.06;;;13.76
79172;BMP280;68597;53.238;-1.418;2023-04-24T13:13:43;100317.22;;;13.90
79172;BMP280;68597;53.238;-1.418;2023-04-24T13:16:09;100328.41;;;14.05
79172;BMP280;68597;53.238;-1.418;2023-04-24T13:18:35;100307.50;;;13.91
79172;BMP280;68597;53.238;-1.418;2023-04-24T13:21:00;100308.78;;;13.90
79172;BMP280;68597;53.238;-1.418;2023-04-24T13:23:26;100313.09;;;13.91
79172;BMP280;68597;53.238;-1.418;2023-04-24T13:25:53;100312.13;;;13.81
79172;BMP280;68597;53.238;-1.418;2023-04-24T13:28:19;100311.03;;;13.77
79172;BMP280;68597;53.238;-1.418;2023-04-24T13:30:45;100337.41;;;13.81
79172;BMP280;68597;53.238;-1.418;2023-04-24T13:33:12;100319.03;;;13.57
79172;BMP280;68597;53.238;-1.418;2023-04-24T13:35:38;100320.16;;;13.47
79172;BMP280;68597;53.238;-1.418;2023-04-24T13:38:04;100317.31;;;13.39
79172;BMP280;68597;53.238;-1.418;2023-04-24T13:40:30;100324.97;;;13.31
79172;BMP280;68597;53.238;-1.418;2023-04-24T13:42:57;100342.97;;;13.43
79172;BMP280;68597;53.238;-1.418;2023-04-24T13:45:24;100335.84;;;13.35
79172;BMP280;68597;53.238;-1.418;2023-04-24T13:47:50;100342.97;;;13.51
79172;BMP280;68597;53.238;-1.418;2023-04-24T13:50:16;100333.28;;;13.67
79172;BMP280;68597;53.238;-1.418;2023-04-24T13:52:42;100337.44;;;13.96
79172;BMP280;68597;53.238;-1.418;2023-04-24T13:55:08;100329.53;;;14.17
79172;BMP280;68597;53.238;-1.418;2023-04-24T13:57:34;100341.53;;;14.26